Historyczne dane pomiarowe

Dodano dane terminowe – wersja testowa.

Dane z okresu 1951-2019

Wersja bazy: 1.34 [2019-03-16, lista zmian], aktualizacja planowana na 2019-04-15

Dane meteo z obszaru Polski uzyskane na podstawie danych udostępnionych przez Instytut Meteorologii i Gospodarki Wodnej – Państwowy Instytut Badawczy.

 

Wybierz Datę:    

       

TemperaturaWilgotnośćWiatrCiśnienieOpadyŚniegCzas trwania zjawisk
 Stacja t tx tn tng RH VA  wxwx mslp ppp RRR   cm mm wxwxwxwxwxwxwx
1994-08-14 15.2 18.7 11.0 9.4 58.3- 6.3 2.3---- 0.0------------
1994-08-13 15.9 22.2 14.9 13.9 77.8- 6.3 1.0---- 0.9------------
1994-08-12 17.4 20.7 14.0 12.4 84.3- 5.7 0.7---- 12.3------------
1994-08-11 18.8 24.8 16.9 16.4 82.0- 6.0 1.7---- 12.6------------
1994-08-10 21.6 28.4 14.0 11.4 69.3- 4.7 1.3---- 0.2------------
1994-08-09 20.0 23.8 16.9 14.9 87.0- 5.3 1.0---- 3.3------------
1994-08-08 20.4 25.3 17.4 16.9 80.0- 5.3 0.7---- 21.1------------
1994-08-07 22.9 28.9 18.4 15.4 67.3- 4.7 1.3---- 5.4------------
1994-08-06 25.5 31.9 17.9 13.4 49.0- 3.7 1.3---- 0.0------------
1994-08-05 23.7 32.9 11.5 8.4 52.8- 3.7 0.3---- 0.0------------
1994-08-04 22.9 29.9 14.4 9.9 55.8- 3.0 1.0---- 0.0------------
1994-08-03 23.9 29.4 18.9 19.3 60.8- 4.0 1.3---- 0.0------------
1994-08-02 27.2 32.9 20.8 18.4 51.0- 4.0 1.0---- 0.0------------
1994-08-01 28.9 36.9 18.4 14.4 42.0- 3.3 0.7---- 0.0------------
1994-07-31 28.5 36.9 16.4 11.9 35.3- 3.3 2.3---- 0.0------------
1994-07-30 27.5 36.4 15.4 12.4 33.8- 2.7 1.0---- 0.0------------
1994-07-29 27.1 36.4 16.4 12.9 32.3- 2.0 0.0---- 0.0------------
1994-07-28 25.3 35.4 13.5 9.4 38.8- 2.7 0.7---- 0.0------------
1994-07-27 25.4 34.9 15.4 11.9 34.0- 3.3 0.0---- 0.0------------
1994-07-26 25.7 34.9 14.0 11.8 31.5- 2.3 1.3---- 0.0------------
1994-07-25 25.4 33.4 13.0 8.9 32.5- 3.0 1.3---- 0.0------------
1994-07-24 23.8 31.9 13.4 12.9 33.8- 2.7 0.7---- 0.0------------
1994-07-23 22.4 30.9 9.5 5.9 37.0- 2.7 2.0---- 0.0------------
1994-07-22 21.5 29.9 10.0 6.4 37.8- 2.0 0.7---- 0.0------------
1994-07-21 20.3 28.9 9.0 7.9 47.5- 2.7 1.3---- 0.0------------
1994-07-20 19.4 24.8 11.0 7.9 56.5- 3.7 2.0---- 0.0------------
1994-07-19 19.8 24.8 15.9 13.4 58.3- 4.7 2.3---- 0.0------------
1994-07-18 19.9 25.8 13.5 10.9 77.0- 5.0 1.3---- 0.0------------
1994-07-17 20.7 28.4 14.9 12.9 82.8- 5.3 1.0---- 2.4------------
1994-07-16 22.6 28.9 16.4 12.9 69.5- 4.7 1.3---- 0.0------------
1994-07-15 24.9 31.9 15.9 11.4 59.5- 3.7 0.7---- 0.0------------
1994-07-14 24.9 32.4 14.0 10.4 44.5- 5.0 0.7---- 0.0------------
1994-07-13 23.4 29.9 14.5 9.9 54.0- 3.3 1.0---- 0.0------------
1994-07-12 21.8 27.0 14.0 11.9 54.8- 3.7 2.0---- 0.0------------
1994-07-11 21.3 29.0 13.0 9.8 62.3- 4.7 2.0---- 0.0------------
1994-07-10 18.7 24.9 13.0 11.4 69.8- 5.0 2.0---- 0.0------------
1994-07-09 16.3 20.9 14.0 12.9 81.8- 6.0 3.3---- 0.0------------
1994-07-08 15.4 18.9 13.0 11.9 74.8- 6.0 5.0---- 0.9------------
1994-07-07 18.9 27.0 11.0 8.4 69.0- 4.3 0.7---- 6.7------------
1994-07-06 20.5 27.0 13.0 8.9 62.5- 4.3 1.3---- 0.0------------
1994-07-05 20.7 27.0 13.0 9.9 55.5- 5.0 0.3---- 0.0------------
1994-07-04 22.7 31.0 12.5 7.9 34.3- 3.3 1.7---- 0.0------------
1994-07-03 21.8 29.0 10.9 6.4 42.0- 3.3 1.0---- 0.0------------
1994-07-02 18.7 26.0 7.9 5.4 62.0- 3.3 0.3---- 0.0------------
1994-07-01 18.1 24.0 9.5 5.9 61.5- 4.7 1.0---- 0.0------------
1994-06-30 19.9 30.2 17.9 18.4 85.0- 5.7 1.3---- 3.9------------
1994-06-29 27.5 34.0 17.9 14.4 61.3- 3.0 0.3---- 0.6------------
1994-06-28 26.7 32.0 17.4 14.9 59.8- 3.3 1.3---- 0.0------------
1994-06-27 26.4 32.5 15.9 12.9 62.8- 3.0 1.0---- 0.0------------
1994-06-26 22.3 31.0 8.5 5.4 43.0- 3.0 0.3---- 0.0------------
1994-06-25 16.5 26.0 3.3 0.4 50.5- 4.0 1.3---- 0.0------------
1994-06-24 14.9 21.4 6.9 3.9 46.0- 4.7 2.0---- 0.0------------
1994-06-23 17.1 22.0 14.4 12.9 59.5- 5.0 3.7---- 0.0------------
1994-06-22 19.8 25.4 13.0 9.9 66.3- 5.0 2.7---- 0.0------------
1994-06-21 16.1 22.9 5.9 2.4 64.8- 3.7 0.7---- 0.0------------
1994-06-20 16.9 21.4 14.0 9.9 76.8- 5.0 2.7---- 0.0------------
1994-06-19 18.0 24.9 12.0 11.9 72.3- 5.3 2.0---- 0.0------------
1994-06-18 12.6 19.9 2.3 -0.2 74.0- 5.0 2.3---- 3.9------------
1994-06-17 11.0 15.0 7.4 5.9 73.0- 6.0 1.7---- 0.0------------
1994-06-16 11.8 16.0 9.5 4.9 74.8- 6.3 1.3---- 2.8------------
222.2 ms

 

Źródłem pochodzenia danych jest Instytut Meteorologii i Gospodarki Wodnej – Państwowy Instytut Badawczy. Dane Instytutu Meteorologii i Gospodarki Wodnej – Państwowego Instytutu Badawczego zostały przetworzone.

Dane źródłowe można odnaleźć na stronie https://dane.imgw.pl